LEBZ/BJZ METAR and TAF weather

Enter ICAO airport designator
Station Type Date Time Source
LEBZ METAR 2020/01/18 20:00 UTC NOAA

LEBZ 182000Z 26012KT 9999 FEW025 13/11 Q1024


Station Type Date Time Source
LEBZ Decoded METAR 2020/01/18 20:00 UTC NOAA

Badajoz / Talavera La Real, Spain (LEBZ) 38-53N 006-49W 192M
Jan 18, 2020 - 03:00 PM EST / 2020.01.18 2000 UTC
Wind: from the W (260 degrees) at 14 MPH (12 KT):0
Visibility: greater than 7 mile(s):0
Sky conditions: mostly clear
Temperature: 55 F (13 C)
Dew Point: 51 F (11 C)
Relative Humidity: 87%
Pressure (altimeter): 30.24 in. Hg (1024 hPa)
ob: LEBZ 182000Z 26012KT 9999 FEW025 13/11 Q1024
cycle: 20

Station Type Date Time Source
LEBZ TAF 2020/01/18 18:27 UTC NOAA

TAF LEBZ 181700Z 1818/1918 26010KT 9999 SCT025 TX14/1818Z TN05/1906Z
BECMG 1908/1911 01016KT PROB40
TEMPO 1911/1916 01018G28KT

Example: see airport list